Time;durP1;ratioP1;P1;durP2;ratioP2;P2;SDS_P1;SDS_P2;PMS_P1;PMS_P2;Temp;Humidity;BMP_temperature;BMP_pressure;BME280_temperature;BME280_humidity;BME280_pressure;Samples;Min_cycle;Max_cycle;Signal;HPM_P1;HPM_P2
2022/12/02 00:00:19;;;;;;;90.40;21.85;;;;;;;0.37;100.00;102194.22;6099151;28;20044;-73
2022/12/02 00:03:20;;;;;;;97.00;22.15;;;;;;;0.52;100.00;102175.47;6100418;28;20041;-73
2022/12/02 00:06:29;;;;;;;93.22;23.15;;;;;;;0.46;100.00;102162.66;6100464;28;20090;-73
2022/12/02 00:09:32;;;;;;;100.32;22.70;;;;;;;0.41;100.00;102177.56;6097998;28;20370;-73
2022/12/02 00:12:30;;;;;;;83.32;20.15;;;;;;;0.40;100.00;102175.88;6096229;28;20120;-73
2022/12/02 00:15:36;;;;;;;94.72;22.60;;;;;;;0.40;100.00;102170.66;6112549;28;20039;-73
2022/12/02 00:18:32;;;;;;;94.07;23.00;;;;;;;0.35;100.00;102167.34;6106290;28;20033;-73
2022/12/02 00:21:27;;;;;;;90.82;20.80;;;;;;;0.39;100.00;102167.19;6100375;28;20029;-73
2022/12/02 00:24:23;;;;;;;89.07;21.17;;;;;;;0.21;100.00;102153.84;6098482;28;20469;-73
2022/12/02 00:27:18;;;;;;;93.30;22.90;;;;;;;0.18;100.00;102160.00;6099767;28;20539;-73
2022/12/02 00:30:13;;;;;;;87.57;21.30;;;;;;;0.31;100.00;102160.47;6100422;28;20072;-73
2022/12/02 00:33:09;;;;;;;88.85;22.25;;;;;;;0.28;100.00;102161.44;6098553;28;20025;-72
2022/12/02 00:36:05;;;;;;;87.03;23.25;;;;;;;0.34;100.00;102149.97;6099270;28;20393;-73
2022/12/02 00:39:00;;;;;;;79.95;21.63;;;;;;;0.26;100.00;102151.94;6099218;28;20500;-73
2022/12/02 00:41:55;;;;;;;86.47;18.70;;;;;;;0.29;100.00;102159.69;6112817;28;20089;-73
2022/12/02 00:48:04;;;;;;;84.28;20.98;;;;;;;0.28;100.00;102158.81;6124277;28;20020;-72
2022/12/02 00:51:00;;;;;;;78.67;22.60;;;;;;;0.33;100.00;102154.31;6099489;28;20492;-73
2022/12/02 00:53:55;;;;;;;78.88;20.67;;;;;;;0.21;100.00;102138.19;6096076;28;20026;-73
2022/12/02 00:56:51;;;;;;;75.67;19.87;;;;;;;0.20;100.00;102134.72;6106904;28;20058;-72
2022/12/02 00:59:46;;;;;;;86.47;22.77;;;;;;;0.25;100.00;102150.22;6110450;28;20271;-72
2022/12/02 01:02:41;;;;;;;77.63;20.73;;;;;;;0.22;100.00;102156.38;6098178;28;20041;-72
2022/12/02 01:05:36;;;;;;;78.03;18.80;;;;;;;0.24;100.00;102148.53;6097007;28;20485;-72
2022/12/02 01:08:32;;;;;;;84.17;23.87;;;;;;;0.23;100.00;102131.16;6088300;28;20508;-73
2022/12/02 01:11:27;;;;;;;87.60;22.90;;;;;;;0.21;100.00;102153.84;6099657;28;20078;-73
2022/12/02 01:14:22;;;;;;;80.80;22.07;;;;;;;0.24;100.00;102159.81;6098568;28;20036;-73
2022/12/02 01:17:18;;;;;;;82.83;20.73;;;;;;;0.30;100.00;102145.75;6089838;28;20029;-72
2022/12/02 01:20:13;;;;;;;81.75;19.00;;;;;;;0.29;100.00;102157.06;6098330;28;20068;-74
2022/12/02 01:23:09;;;;;;;78.70;20.80;;;;;;;0.34;100.00;102148.22;6097851;28;20045;-73
2022/12/02 01:26:04;;;;;;;85.80;21.37;;;;;;;0.19;100.00;102140.00;6098483;28;20297;-73
2022/12/02 01:29:00;;;;;;;79.88;20.08;;;;;;;0.20;100.00;102152.13;6098239;28;20107;-74
2022/12/02 01:31:55;;;;;;;84.60;19.58;;;;;;;0.12;100.00;102154.09;6097769;28;20033;-73
2022/12/02 01:34:50;;;;;;;88.87;23.93;;;;;;;0.13;100.00;102154.06;6098883;28;20116;-74
2022/12/02 01:37:45;;;;;;;81.73;20.23;;;;;;;0.19;100.00;102155.63;6098698;28;20113;-72
2022/12/02 01:40:41;;;;;;;99.47;24.97;;;;;;;0.15;100.00;102143.56;6100448;28;20068;-73
2022/12/02 01:43:36;;;;;;;76.65;20.52;;;;;;;0.16;100.00;102150.50;6121955;28;20124;-72
2022/12/02 01:46:32;;;;;;;72.67;19.80;;;;;;;0.03;100.00;102143.94;6091987;28;20526;-73
2022/12/02 01:49:27;;;;;;;85.07;18.93;;;;;;;-0.04;100.00;102156.28;6095737;28;20386;-73
2022/12/02 01:52:22;;;;;;;84.65;21.65;;;;;;;-0.12;100.00;102135.66;6095824;28;20149;-73
2022/12/02 01:55:21;;;;;;;87.82;23.13;;;;;;;-0.05;100.00;102136.31;6087729;28;20033;-74
2022/12/02 01:58:19;;;;;;;91.88;24.27;;;;;;;-0.02;100.00;102144.91;6099022;28;20107;-74
2022/12/02 02:01:29;;;;;;;83.35;22.00;;;;;;;-0.09;100.00;102135.56;6098237;28;20492;-73
2022/12/02 02:04:24;;;;;;;77.10;18.98;;;;;;;-0.03;100.00;102129.34;6097580;28;20550;-73
2022/12/02 02:07:20;;;;;;;93.30;22.30;;;;;;;0.06;100.00;102142.09;6097658;28;20060;-73
2022/12/02 02:10:15;;;;;;;90.57;22.33;;;;;;;0.05;100.00;102142.16;6097014;28;20037;-74
2022/12/02 02:13:12;;;;;;;94.70;22.38;;;;;;;-0.01;100.00;102136.22;6096063;28;20313;-74
2022/12/02 02:16:07;;;;;;;85.97;22.38;;;;;;;0.05;100.00;102142.16;6085182;28;20077;-73
2022/12/02 02:19:04;;;;;;;92.77;21.63;;;;;;;-0.04;100.00;102136.28;6121994;28;20028;-73
2022/12/02 02:22:00;;;;;;;90.35;23.58;;;;;;;-0.01;100.00;102135.34;6093977;28;20043;-72
2022/12/02 02:24:55;;;;;;;71.85;19.45;;;;;;;0.06;100.00;102130.78;6092637;28;20033;-73
2022/12/02 02:27:54;;;;;;;102.30;23.87;;;;;;;-0.06;100.00;102114.63;6097191;28;20525;-72
2022/12/02 02:30:51;;;;;;;97.25;24.58;;;;;;;-0.05;100.00;102113.72;6094762;28;20032;-73
2022/12/02 02:33:47;;;;;;;93.38;23.52;;;;;;;0.00;100.00;102109.22;6087195;28;20044;-73
2022/12/02 02:36:43;;;;;;;85.63;20.58;;;;;;;0.05;100.00;102121.28;6096413;28;20045;-72
2022/12/02 02:39:38;;;;;;;82.17;20.10;;;;;;;0.07;100.00;102106.44;6091061;28;20044;-73
2022/12/02 02:42:33;;;;;;;83.60;20.43;;;;;;;0.07;100.00;102127.31;6096332;28;20332;-73
2022/12/02 02:45:34;;;;;;;83.60;22.17;;;;;;;0.03;100.00;102123.09;6095601;28;20135;-73
2022/12/02 02:48:29;;;;;;;84.55;21.33;;;;;;;-0.06;100.00;102104.22;6096739;28;20045;-74
2022/12/02 02:51:25;;;;;;;74.83;18.80;;;;;;;-0.11;100.00;102106.06;6096142;28;20075;-74
2022/12/02 02:54:20;;;;;;;72.30;21.80;;;;;;;-0.11;100.00;102106.06;6095295;28;20532;-74
2022/12/02 02:57:15;;;;;;;94.63;25.23;;;;;;;-0.15;100.00;102098.38;6096090;28;20275;-73
2022/12/02 03:00:11;;;;;;;82.53;20.00;;;;;;;-0.09;100.00;102093.00;6084224;28;20283;-73
2022/12/02 03:03:07;;;;;;;94.68;21.50;;;;;;;-0.06;100.00;102098.13;6095678;28;20029;-73
2022/12/02 03:06:04;;;;;;;80.57;19.08;;;;;;;-0.07;100.00;102099.03;6096195;28;20477;-72
2022/12/02 03:09:01;;;;;;;92.97;22.50;;;;;;;0.00;100.00;102109.22;6086540;28;20033;-73
2022/12/02 03:11:57;;;;;;;88.65;20.65;;;;;;;-0.07;100.00;102096.41;6095400;28;20032;-72
2022/12/02 03:14:53;;;;;;;82.35;20.73;;;;;;;-0.02;100.00;102108.41;6084664;28;20167;-73
2022/12/02 03:17:49;;;;;;;90.85;23.45;;;;;;;-0.12;100.00;102101.78;6089137;28;20037;-73
2022/12/02 03:20:45;;;;;;;98.50;23.70;;;;;;;-0.02;100.00;102097.13;6097487;28;20119;-73
2022/12/02 03:23:40;;;;;;;67.15;17.77;;;;;;;-0.12;100.00;102088.75;6096254;28;20059;-73
2022/12/02 03:26:36;;;;;;;79.25;21.17;;;;;;;-0.02;100.00;102105.81;6092572;28;20402;-73
2022/12/02 03:29:32;;;;;;;86.40;24.27;;;;;;;-0.10;100.00;102084.31;6087234;28;20064;-74
2022/12/02 03:32:27;;;;;;;80.30;20.50;;;;;;;-0.13;100.00;102080.94;6096156;28;20025;-73
2022/12/02 03:35:23;;;;;;;75.82;20.30;;;;;;;0.03;100.00;102086.59;6100369;28;20025;-73
2022/12/02 03:38:18;;;;;;;90.53;21.10;;;;;;;-0.04;100.00;102080.69;6093853;28;20041;-73
2022/12/02 03:41:14;;;;;;;81.20;21.47;;;;;;;-0.05;100.00;102072.00;6093059;28;20082;-74
2022/12/02 03:44:09;;;;;;;77.88;19.50;;;;;;;-0.02;100.00;102077.13;6094077;28;20033;-74
2022/12/02 03:47:05;;;;;;;85.57;20.87;;;;;;;-0.06;100.00;102074.69;6090859;28;20107;-73
2022/12/02 03:50:01;;;;;;;92.07;25.00;;;;;;;-0.06;100.00;102080.75;6095655;28;20037;-74
2022/12/02 03:52:56;;;;;;;81.47;21.17;;;;;;;-0.03;100.00;102077.19;6094753;28;20147;-74
2022/12/02 03:55:51;;;;;;;83.47;19.88;;;;;;;-0.04;100.00;102080.69;6093360;28;20477;-73
2022/12/02 03:58:49;;;;;;;84.80;19.83;;;;;;;-0.03;100.00;102072.81;6084237;28;20032;-74
2022/12/02 04:01:44;;;;;;;74.78;17.55;;;;;;;0.03;100.00;102076.97;6096462;28;20021;-74
2022/12/02 04:04:40;;;;;;;77.70;20.87;;;;;;;-0.06;100.00;102075.53;6096246;28;20040;-74
2022/12/02 04:07:35;;;;;;;77.77;17.90;;;;;;;-0.05;100.00;102082.44;6096309;28;20040;-73
2022/12/02 04:10:30;;;;;;;64.60;18.53;;;;;;;-0.02;100.00;102074.53;6093651;28;20477;-73
2022/12/02 04:13:26;;;;;;;66.20;17.20;;;;;;;-0.07;100.00;102066.00;6097089;28;20040;-73
2022/12/02 04:16:21;;;;;;;75.43;19.30;;;;;;;-0.09;100.00;102062.59;6100815;28;20083;-74
2022/12/02 04:19:16;;;;;;;75.73;20.50;;;;;;;-0.07;100.00;102065.13;6084890;28;20760;-72
2022/12/02 04:22:12;;;;;;;79.57;20.00;;;;;;;0.06;100.00;102076.91;6099054;28;20035;-74
2022/12/02 04:25:07;;;;;;;73.57;18.60;;;;;;;0.02;100.00;102054.44;6118138;28;20048;-73
2022/12/02 04:28:03;;;;;;;69.15;20.60;;;;;;;0.04;100.00;102065.66;6123146;28;20081;-73
2022/12/02 04:30:58;;;;;;;79.30;21.42;;;;;;;-0.01;100.00;102049.31;6098512;28;20039;-73
2022/12/02 04:33:54;;;;;;;66.73;20.30;;;;;;;0.04;100.00;102057.00;6099621;28;20079;-74
2022/12/02 04:36:49;;;;;;;74.25;19.13;;;;;;;-0.03;100.00;102048.53;6098618;28;20298;-73
2022/12/02 04:39:44;;;;;;;73.57;17.77;;;;;;;0.13;100.00;102054.97;6099823;28;20515;-73
2022/12/02 04:42:40;;;;;;;73.83;19.10;;;;;;;0.09;100.00;102060.31;6099651;28;20127;-73
2022/12/02 04:45:35;;;;;;;60.23;16.67;;;;;;;0.07;100.00;102056.91;6100186;28;20040;-73
2022/12/02 04:48:30;;;;;;;70.15;18.00;;;;;;;0.02;100.00;102048.38;6108058;28;20032;-73
2022/12/02 04:51:26;;;;;;;74.93;19.77;;;;;;;-0.04;100.00;102042.44;6124098;28;20041;-74
2022/12/02 04:54:21;;;;;;;74.07;18.67;;;;;;;0.03;100.00;102060.50;6123477;28;20031;-73
2022/12/02 04:57:16;;;;;;;74.13;20.23;;;;;;;-0.04;100.00;102034.63;6119313;28;20433;-74
2022/12/02 05:00:12;;;;;;;65.10;16.97;;;;;;;-0.05;100.00;102035.50;6084854;28;20045;-73
2022/12/02 05:03:07;;;;;;;74.32;18.40;;;;;;;-0.10;100.00;102031.34;6098897;28;20025;-73
2022/12/02 05:06:03;;;;;;;67.17;19.07;;;;;;;-0.03;100.00;102046.75;6099534;28;20072;-73
2022/12/02 05:08:58;;;;;;;64.15;18.85;;;;;;;-0.05;100.00;102040.72;6091860;28;20048;-73
2022/12/02 05:11:54;;;;;;;65.87;17.87;;;;;;;-0.09;100.00;102030.44;6100458;28;20448;-73
2022/12/02 05:14:50;;;;;;;57.10;16.47;;;;;;;0.04;100.00;102043.94;6099390;28;20489;-74
2022/12/02 05:17:46;;;;;;;68.10;17.63;;;;;;;0.05;100.00;102043.06;6098633;28;20032;-74
2022/12/02 05:20:41;;;;;;;64.70;18.73;;;;;;;-0.03;100.00;102036.31;6097350;28;20110;-73
2022/12/02 05:23:36;;;;;;;67.43;19.57;;;;;;;-0.05;100.00;102032.03;6098011;28;20075;-73
2022/12/02 05:26:32;;;;;;;67.23;17.73;;;;;;;-0.11;100.00;102029.66;6092248;28;20090;-73
2022/12/02 05:29:27;;;;;;;54.07;17.07;;;;;;;-0.03;100.00;102043.31;6099304;28;20029;-73
2022/12/02 05:32:22;;;;;;;64.43;18.70;;;;;;;0.05;100.00;102041.31;6089944;28;20028;-73
2022/12/02 05:35:18;;;;;;;58.83;17.47;;;;;;;0.01;100.00;102042.28;6098727;28;20033;-73
2022/12/02 05:38:13;;;;;;;74.33;19.47;;;;;;;-0.04;100.00;102039.84;6096820;28;20021;-74
2022/12/02 05:41:08;;;;;;;60.20;17.93;;;;;;;-0.01;100.00;102046.72;6097554;28;20045;-73
2022/12/02 05:44:33;;;;;;;58.17;16.90;;;;;;;-0.01;100.00;102044.09;6082123;28;20036;-72
2022/12/02 05:47:29;;;;;;;66.18;18.08;;;;;;;-0.09;100.00;102036.53;6087583;28;20076;-73
2022/12/02 05:50:30;;;;;;;64.50;19.60;;;;;;;-0.10;100.00;102021.78;6103960;28;20028;-73
2022/12/02 05:53:26;;;;;;;70.80;20.80;;;;;;;-0.13;100.00;102027.06;6120662;28;20466;-73
2022/12/02 05:56:26;;;;;;;61.17;17.05;;;;;;;-0.08;100.00;102033.00;6121017;28;20029;-73
2022/12/02 05:59:22;;;;;;;62.88;16.25;;;;;;;-0.07;100.00;102032.09;6119392;28;20568;-72
2022/12/02 06:02:33;;;;;;;61.42;16.42;;;;;;;-0.05;100.00;102035.50;6118686;28;20612;-73
2022/12/02 06:05:36;;;;;;;68.03;17.92;;;;;;;-0.07;100.00;102034.72;6098490;28;20033;-73
2022/12/02 06:08:32;;;;;;;58.70;16.60;;;;;;;-0.06;100.00;102046.84;6096911;28;20064;-73
2022/12/02 06:11:29;;;;;;;65.57;19.23;;;;;;;-0.04;100.00;102044.19;6098307;28;20032;-74
2022/12/02 06:14:29;;;;;;;58.47;17.73;;;;;;;-0.04;100.00;102047.66;6096031;28;20094;-73
2022/12/02 06:17:25;;;;;;;60.88;15.80;;;;;;;-0.12;100.00;102047.03;6097018;28;20057;-73
2022/12/02 06:20:27;;;;;;;56.47;17.27;;;;;;;-0.06;100.00;102052.06;6097871;28;20120;-73
2022/12/02 06:23:24;;;;;;;64.65;19.38;;;;;;;-0.05;100.00;102051.16;6097557;28;20025;-73
2022/12/02 06:26:20;;;;;;;68.80;18.38;;;;;;;-0.06;100.00;102051.22;6098019;28;20044;-73
2022/12/02 06:29:17;;;;;;;58.63;15.95;;;;;;;-0.06;100.00;102041.66;6097762;28;20036;-73
2022/12/02 06:32:20;;;;;;;61.03;17.75;;;;;;;-0.01;100.00;102049.31;6095454;28;20025;-73
2022/12/02 06:35:20;;;;;;;63.95;17.75;;;;;;;-0.24;100.00;102026.53;6087840;28;20086;-73
2022/12/02 06:38:28;;;;;;;69.22;17.65;;;;;;;-0.15;100.00;102041.91;6089845;28;20033;-74
2022/12/02 06:41:26;;;;;;;57.70;16.25;;;;;;;-0.28;100.00;102019.72;6095331;28;20047;-73
2022/12/02 06:47:36;;;;;;;54.40;15.10;;;;;;;-0.13;100.00;102057.50;6121599;28;20036;-73
2022/12/02 06:50:34;;;;;;;53.87;16.23;;;;;;;-0.14;100.00;102043.63;6121820;28;20028;-73
2022/12/02 06:53:32;;;;;;;53.20;14.82;;;;;;;-0.18;100.00;102042.00;6120932;28;20052;-74
2022/12/02 06:56:29;;;;;;;54.35;15.07;;;;;;;-0.24;100.00;102042.16;6102251;28;20033;-74
2022/12/02 06:59:24;;;;;;;64.07;17.33;;;;;;;-0.36;100.00;102024.31;6097230;28;20043;-75
2022/12/02 07:02:29;;;;;;;51.67;16.45;;;;;;;-0.21;100.00;102046.44;6095314;28;20033;-74
2022/12/02 07:05:25;;;;;;;74.72;22.85;;;;;;;-0.25;100.00;102050.91;6096159;28;20033;-74
2022/12/02 07:08:20;;;;;;;58.67;16.97;;;;;;;-0.31;100.00;102053.69;6097023;28;20044;-75
2022/12/02 07:11:49;;;;;;;62.50;15.97;;;;;;;-0.16;100.00;102058.44;6097420;28;20057;-74
2022/12/02 07:15:13;;;;;;;61.75;19.08;;;;;;;-0.08;100.00;102064.28;6091062;28;20043;-75
2022/12/02 07:18:13;;;;;;;52.63;15.68;;;;;;;-0.21;100.00;102055.13;6089775;28;20033;-74
2022/12/02 07:21:11;;;;;;;54.42;15.50;;;;;;;-0.15;100.00;102057.53;6108658;28;20089;-75
2022/12/02 07:24:11;;;;;;;59.53;16.40;;;;;;;-0.18;100.00;102062.84;6119577;28;20043;-75
2022/12/02 07:27:28;;;;;;;53.03;17.08;;;;;;;-0.13;100.00;102068.78;6119871;28;20044;-75
2022/12/02 07:30:33;;;;;;;55.53;15.93;;;;;;;-0.20;100.00;102054.22;6121298;28;20549;-75
2022/12/02 07:33:29;;;;;;;59.05;16.38;;;;;;;-0.10;100.00;102058.25;6102007;28;20037;-74
2022/12/02 07:36:24;;;;;;;45.97;13.85;;;;;;;-0.09;100.00;102066.94;6097151;28;20057;-74
2022/12/02 07:39:20;;;;;;;54.30;16.53;;;;;;;-0.10;100.00;102060.00;6101240;28;20119;-75
2022/12/02 07:42:15;;;;;;;56.13;18.53;;;;;;;-0.13;100.00;102050.53;6120357;28;20059;-74
2022/12/02 07:45:12;;;;;;;63.77;16.23;;;;;;;-0.09;100.00;102065.19;6116290;28;20029;-75
2022/12/02 07:48:07;;;;;;;61.50;18.42;;;;;;;-0.11;100.00;102055.72;6111165;28;20033;-74
2022/12/02 07:51:03;;;;;;;67.87;18.80;;;;;;;-0.09;100.00;102066.94;6125721;28;20062;-74
2022/12/02 07:53:58;;;;;;;66.45;17.90;;;;;;;-0.06;100.00;102062.50;6124766;28;20310;-73
2022/12/02 07:56:53;;;;;;;55.60;16.30;;;;;;;-0.13;100.00;102050.53;6125170;28;20530;-74
2022/12/02 07:59:49;;;;;;;52.10;14.60;;;;;;;-0.04;100.00;102057.22;6098312;28;20385;-76
2022/12/02 08:02:44;;;;;;;57.07;15.90;;;;;;;-0.16;100.00;102050.63;6110269;28;20028;-76
2022/12/02 08:05:39;;;;;;;67.90;19.67;;;;;;;-0.12;100.00;102057.47;6125230;28;20036;-75
2022/12/02 08:08:35;;;;;;;62.47;16.17;;;;;;;-0.32;100.00;102027.66;6125123;28;20500;-74
2022/12/02 08:11:30;;;;;;;67.33;19.47;;;;;;;-0.17;100.00;102048.06;6106221;28;20044;-74
2022/12/02 08:14:25;;;;;;;62.20;18.77;;;;;;;-0.13;100.00;102047.91;6103984;28;20036;-75
2022/12/02 08:17:21;;;;;;;57.10;16.00;;;;;;;0.01;100.00;102070.97;6100747;28;20060;-75
2022/12/02 08:20:16;;;;;;;67.10;20.07;;;;;;;-0.08;100.00;102064.28;6101054;28;20025;-75
2022/12/02 08:23:11;;;;;;;66.10;20.08;;;;;;;-0.07;100.00;102073.81;6100001;28;20103;-75
2022/12/02 08:26:06;;;;;;;66.40;20.10;;;;;;;-0.09;100.00;102061.72;6100223;28;20373;-76
2022/12/02 08:29:02;;;;;;;73.27;18.87;;;;;;;0.04;100.00;102072.63;6100569;28;20028;-75
2022/12/02 08:31:57;;;;;;;54.92;16.50;;;;;;;-0.19;100.00;102042.88;6099835;28;20032;-75
2022/12/02 08:34:53;;;;;;;66.83;18.73;;;;;;;-0.09;100.00;102056.50;6100197;28;20029;-75
2022/12/02 08:37:48;;;;;;;60.33;17.63;;;;;;;-0.13;100.00;102055.75;6100411;28;20105;-75
2022/12/02 08:40:44;;;;;;;69.73;16.63;;;;;;;-0.01;100.00;102073.63;6100168;28;20033;-74
2022/12/02 08:43:39;;;;;;;67.18;21.33;;;;;;;-0.02;100.00;102069.31;6099774;28;20279;-74
2022/12/02 08:46:35;;;;;;;60.80;17.53;;;;;;;0.03;100.00;102070.94;6100162;28;20159;-75
2022/12/02 08:49:30;;;;;;;63.50;17.92;;;;;;;-0.01;100.00;102065.81;6099915;28;20489;-75
2022/12/02 08:52:26;;;;;;;59.77;16.77;;;;;;;-0.13;100.00;102042.72;6099139;28;20060;-74
2022/12/02 08:55:21;;;;;;;52.23;15.53;;;;;;;0.05;100.00;102064.78;6098479;28;20069;-73
2022/12/02 08:58:16;;;;;;;59.85;17.00;;;;;;;-0.02;100.00;102058.03;6099889;28;20474;-74
2022/12/02 09:01:12;;;;;;;60.50;17.83;;;;;;;0.11;100.00;102068.97;6099755;28;20056;-74
2022/12/02 09:04:07;;;;;;;73.17;23.70;;;;;;;0.01;100.00;102065.75;6099280;28;20039;-74
2022/12/02 09:07:02;;;;;;;56.03;15.33;;;;;;;0.11;100.00;102074.19;6099621;28;20028;-73
2022/12/02 09:09:57;;;;;;;50.83;15.10;;;;;;;0.08;100.00;102066.44;6101250;28;20035;-74
2022/12/02 09:12:53;;;;;;;47.30;15.30;;;;;;;0.12;100.00;102065.44;6123062;28;20111;-73
2022/12/02 09:15:48;;;;;;;59.20;17.87;;;;;;;0.18;100.00;102070.47;6123515;28;20288;-74
2022/12/02 09:18:44;;;;;;;51.97;17.42;;;;;;;0.19;100.00;102070.41;6123885;28;20601;-74
2022/12/02 09:21:39;;;;;;;45.85;13.75;;;;;;;0.24;100.00;102070.28;6123435;28;20025;-74
2022/12/02 09:24:34;;;;;;;61.30;17.67;;;;;;;0.25;100.00;102077.19;6110817;28;20603;-73
2022/12/02 09:27:30;;;;;;;48.13;16.37;;;;;;;0.38;100.00;102081.97;6099666;28;20029;-74
2022/12/02 09:30:25;;;;;;;55.80;16.27;;;;;;;0.28;100.00;102071.88;6099373;28;20115;-74
2022/12/02 09:33:20;;;;;;;42.40;14.83;;;;;;;0.45;100.00;102080.06;6090662;28;20032;-76
2022/12/02 09:36:15;;;;;;;54.10;17.77;;;;;;;0.45;100.00;102087.88;6097750;28;20389;-74
2022/12/02 09:39:11;;;;;;;42.40;14.20;;;;;;;0.35;100.00;102070.81;6100468;28;20060;-75
2022/12/02 09:42:07;;;;;;;45.97;13.83;;;;;;;0.40;100.00;102056.72;6098830;28;20533;-74
2022/12/02 09:45:03;;;;;;;47.95;15.45;;;;;;;0.70;100.00;102069.69;6098793;28;20486;-74
2022/12/02 09:47:58;;;;;;;42.50;14.65;;;;;;;0.78;100.00;102071.13;6097606;28;20063;-74
2022/12/02 09:50:54;;;;;;;38.97;12.70;;;;;;;0.74;100.00;102058.22;6097489;28;20116;-75
2022/12/02 09:53:49;;;;;;;41.67;13.57;;;;;;;0.58;100.00;102047.44;6096422;28;20056;-76
2022/12/02 09:56:46;;;;;;;44.40;14.65;;;;;;;0.53;100.00;102047.59;6098662;28;20086;-75
2022/12/02 09:59:42;;;;;;;45.67;14.45;;;;;;;0.45;100.00;102022.66;6098433;28;20421;-74
2022/12/02 10:02:46;;;;;;;37.00;11.38;;;;;;;0.58;100.00;102050.03;6097985;28;20029;-74
2022/12/02 10:05:42;;;;;;;43.55;14.40;;;;;;;0.60;100.00;102061.28;6098182;28;20095;-74
2022/12/02 10:08:37;;;;;;;45.72;15.57;;;;;;;0.55;100.00;102050.16;6096398;28;20058;-75
2022/12/02 10:11:32;;;;;;;34.77;12.23;;;;;;;0.56;100.00;102060.56;6096898;28;20071;-75
2022/12/02 10:14:30;;;;;;;44.27;15.07;;;;;;;0.66;100.00;102068.91;6097354;28;20760;-74
2022/12/02 10:17:26;;;;;;;46.88;14.23;;;;;;;0.44;100.00;102029.63;6096981;28;20462;-73
2022/12/02 10:20:23;;;;;;;43.27;14.83;;;;;;;0.68;100.00;102058.44;6097896;28;20036;-75
2022/12/02 10:23:23;;;;;;;39.83;11.93;;;;;;;0.55;100.00;102034.47;6095783;28;20303;-76
2022/12/02 10:26:19;;;;;;;45.13;14.63;;;;;;;0.68;100.00;102048.84;6097866;28;20135;-75
2022/12/02 10:29:27;;;;;;;42.55;14.32;;;;;;;0.76;100.00;102039.00;6097492;28;20033;-73
2022/12/02 10:32:26;;;;;;;37.72;13.85;;;;;;;0.71;100.00;102040.09;6096789;28;20465;-75
2022/12/02 10:35:22;;;;;;;43.05;15.40;;;;;;;0.70;100.00;102034.00;6097924;28;20047;-73
2022/12/02 10:38:31;;;;;;;41.77;13.83;;;;;;;0.77;100.00;102051.16;6097383;28;20473;-73
2022/12/02 10:41:28;;;;;;;43.03;13.48;;;;;;;0.77;100.00;102035.50;6106152;28;20036;-72
2022/12/02 10:44:24;;;;;;;37.03;13.95;;;;;;;0.71;100.00;102040.09;6121255;28;20040;-73
2022/12/02 10:47:23;;;;;;;36.97;11.85;;;;;;;0.76;100.00;102033.78;6121859;28;20044;-72
2022/12/02 10:50:21;;;;;;;42.58;13.85;;;;;;;0.71;100.00;102033.06;6121786;28;20117;-73
2022/12/02 10:53:17;;;;;;;40.78;13.65;;;;;;;0.83;100.00;102050.94;6099415;28;20120;-74
2022/12/02 10:56:16;;;;;;;31.30;11.40;;;;;;;0.66;100.00;102035.00;6097480;28;20044;-74
2022/12/02 10:59:14;;;;;;;38.72;13.70;;;;;;;0.62;100.00;102043.84;6092091;28;20505;-73
2022/12/02 11:02:24;;;;;;;46.38;14.88;;;;;;;0.62;100.00;102048.19;6090401;28;20033;-73
2022/12/02 11:05:22;;;;;;;42.63;15.05;;;;;;;0.60;100.00;102046.47;6097508;28;20424;-74
2022/12/02 11:08:35;;;;;;;39.03;13.55;;;;;;;0.59;100.00;102046.53;6097157;28;20034;-73
2022/12/02 11:11:31;;;;;;;40.40;13.38;;;;;;;0.68;100.00;102042.78;6120385;28;20047;-74
2022/12/02 11:14:38;;;;;;;37.13;13.40;;;;;;;0.58;100.00;102037.00;6103425;28;20029;-73
2022/12/02 11:18:00;;;;;;;43.75;13.93;;;;;;;0.59;100.00;102031.75;6085526;28;20044;-73
2022/12/02 11:21:27;;;;;;;36.13;12.65;;;;;;;0.56;100.00;102041.44;6096078;28;20040;-73
2022/12/02 11:24:22;;;;;;;43.40;13.60;;;;;;;0.60;100.00;102032.56;6093792;28;20098;-73
2022/12/02 11:27:18;;;;;;;40.37;13.57;;;;;;;0.59;100.00;102042.19;6093767;28;20041;-73
2022/12/02 11:30:13;;;;;;;41.43;13.47;;;;;;;0.57;100.00;102037.94;6100247;28;20063;-73
2022/12/02 11:33:13;;;;;;;38.40;13.47;;;;;;;0.56;100.00;102031.00;6096911;28;20106;-74
2022/12/02 11:36:11;;;;;;;34.28;12.18;;;;;;;0.61;100.00;102031.69;6098774;28;20029;-73
2022/12/02 11:39:08;;;;;;;33.10;12.32;;;;;;;0.62;100.00;102035.16;6101215;28;20470;-73
2022/12/02 11:42:03;;;;;;;36.40;13.82;;;;;;;0.58;100.00;102031.78;6100065;28;20504;-73
2022/12/02 11:45:14;;;;;;;36.47;12.77;;;;;;;0.57;100.00;102024.88;6100487;28;20033;-74
2022/12/02 11:48:15;;;;;;;34.38;12.18;;;;;;;0.55;100.00;102022.31;6100813;28;20033;-73
2022/12/02 11:51:30;;;;;;;31.40;11.82;;;;;;;0.67;100.00;102022.81;6101455;28;20112;-73
2022/12/02 11:54:26;;;;;;;41.95;13.43;;;;;;;0.50;100.00;102008.56;6098457;28;20419;-75
2022/12/02 11:57:26;;;;;;;30.15;10.85;;;;;;;0.47;100.00;102007.78;6100188;28;20051;-75
2022/12/02 12:00:30;;;;;;;41.33;14.15;;;;;;;0.38;100.00;101993.28;6091536;28;20036;-75
2022/12/02 12:03:25;;;;;;;35.13;13.18;;;;;;;0.43;100.00;102004.47;6102619;28;20349;-74
2022/12/02 12:06:23;;;;;;;31.03;11.47;;;;;;;0.42;100.00;102007.94;6101023;28;20116;-76
2022/12/02 12:09:19;;;;;;;35.25;14.10;;;;;;;0.48;100.00;102019.94;6085972;28;20393;-74
2022/12/02 12:12:17;;;;;;;38.00;13.47;;;;;;;0.52;100.00;102029.38;6097807;28;20041;-74
2022/12/02 12:15:12;;;;;;;44.78;13.45;;;;;;;0.46;100.00;102009.53;6098256;28;20021;-75
2022/12/02 12:18:08;;;;;;;37.93;12.90;;;;;;;0.48;100.00;102014.72;6098442;28;20037;-74
2022/12/02 12:21:05;;;;;;;36.55;14.63;;;;;;;0.44;100.00;102000.06;6098032;28;20037;-74
2022/12/02 12:24:25;;;;;;;38.50;14.10;;;;;;;0.42;100.00;101986.22;6089902;28;20394;-74
2022/12/02 12:27:37;;;;;;;42.50;13.25;;;;;;;0.53;100.00;102003.25;6087060;28;20036;-75
2022/12/02 12:30:32;;;;;;;44.20;14.82;;;;;;;0.70;100.00;102002.69;6098682;28;20083;-76
2022/12/02 12:33:28;;;;;;;36.70;13.30;;;;;;;0.59;100.00;101991.75;6094553;28;20174;-74
2022/12/02 12:36:23;;;;;;;39.72;12.05;;;;;;;0.70;100.00;101996.59;6113155;28;20775;-76
2022/12/02 12:39:18;;;;;;;41.17;12.40;;;;;;;0.58;100.00;101982.19;6099555;28;20536;-75
2022/12/02 12:42:14;;;;;;;35.23;12.67;;;;;;;0.56;100.00;101984.00;6092218;28;20272;-75
2022/12/02 12:45:09;;;;;;;40.92;13.70;;;;;;;0.65;100.00;101991.53;6094528;28;20410;-75
2022/12/02 12:48:05;;;;;;;38.40;12.05;;;;;;;0.59;100.00;101994.34;6099004;28;20078;-74
2022/12/02 12:51:00;;;;;;;39.05;13.07;;;;;;;0.46;100.00;101962.59;6094209;28;20036;-75
2022/12/02 12:53:55;;;;;;;38.27;13.17;;;;;;;0.48;100.00;101986.03;6099620;28;20029;-75
2022/12/02 12:56:51;;;;;;;44.77;13.80;;;;;;;0.50;100.00;101984.22;6097841;28;20040;-74
2022/12/02 12:59:46;;;;;;;43.53;14.57;;;;;;;0.41;100.00;101974.06;6098184;28;20517;-75
2022/12/02 13:02:41;;;;;;;45.50;15.37;;;;;;;0.55;100.00;101990.13;6091977;28;20437;-74
2022/12/02 13:05:36;;;;;;;42.73;12.87;;;;;;;0.41;100.00;101964.50;6099388;28;20036;-74
2022/12/02 13:08:32;;;;;;;40.67;12.60;;;;;;;0.43;100.00;101986.19;6098742;28;20037;-74
2022/12/02 13:11:27;;;;;;;41.90;12.52;;;;;;;0.40;100.00;101965.41;6090805;28;20073;-74
2022/12/02 13:14:22;;;;;;;35.17;13.67;;;;;;;0.53;100.00;101984.13;6097076;28;20057;-73
2022/12/02 13:17:18;;;;;;;40.90;12.67;;;;;;;0.49;100.00;101974.69;6099399;28;20033;-74
2022/12/02 13:20:13;;;;;;;39.30;12.77;;;;;;;0.51;100.00;101985.94;6098708;28;20033;-75
2022/12/02 13:23:08;;;;;;;37.67;12.02;;;;;;;0.44;100.00;101974.84;6094500;28;20032;-74
2022/12/02 13:26:04;;;;;;;42.47;13.67;;;;;;;0.55;100.00;101990.13;6097433;28;20128;-74
2022/12/02 13:28:59;;;;;;;36.40;11.48;;;;;;;0.47;100.00;101976.47;6092267;28;20032;-75